aviador You're here:

KBLU Decoded Metar

EMIGRANT GAP in CA, USA
Report Time2017-04-29 16:52:00
UTC Time2017-04-29 17:44:55
Flight Rules vfr VFR
WindVRB at 04 kt
Visibility9999 m
Phenomena:N/A
Clouds:N/A
Expected CloudBase > 8,800 ft AGL from Temp-Dew spread
CeilingNone
Temp11°C (ISA +6)
Dew Point-11°C (20% RH)
AAT6.4°C
QNH1023 hPa
Density Alt5,748 ft
Elevation5,279 ft
Report Wrong Elevation
Raw Report
KBLU 291652Z AUTO VRB04KT 10SM CLR 11/M11 A3020=

Extra information for KBLU:More info

Metar Taf Metar & Taf Last 4 Metars F.Rules Stats Wind Profile Meteogram Temp Stats Airport Information Weather charts Add Link Nearby VenuesMetar ALERT Operation Metar Decoded Social comments

AIRNAV info for KBLU